Spaceon02064 — ASD — position and weather

sailwx.info

Track history (hours):
 
Tides and Currents Weather Stations Pressure Air Temp Water Temp Dewpoint Dewpoint Depression Visibility Wind Speed Wind Dir Waves Ship Positions

Spaceon02064

Last reported at 2014-Jul-25 16:29 UTC. Time now 2014-Jul-25 18:21 UTC.
Position N 31°22' E 121°43'.

Length 6 m.

Type: Ship. MMSI: 200902064.

Date/timePositionNaut miles runAvg speedWind from/ knotsBaromVisibWave heightAir tempDewpointWater temp
2014-Jul-25 16:29N 31°22' E 121°43'13 2.5
2014-Jul-25 11:30N 31°26' E 121°30'2 2.3
2014-Jul-25 10:31N 31°24' E 121°31'227.4
2014-Jul-25 10:27N 31°25' E 121°29'1 1.4
2014-Jul-25 09:28N 31°25' E 121°30'0 3.4
2014-Jul-25 09:21N 31°24' E 121°31'2 2.2
2014-Jul-25 08:33N 31°23' E 121°30'212.5
2014-Jul-25 08:25N 31°24' E 121°31'4 4.3
2014-Jul-25 07:33N 31°22' E 121°28'421.7
2014-Jul-25 07:23N 31°24' E 121°31'4 4.5
2014-Jul-25 06:33N 31°22' E 121°28'4407.7
2014-Jul-25 06:33N 31°24' E 121°31'4 3.9
2014-Jul-25 05:33N 31°22' E 121°28'0 5.4
2014-Jul-25 05:32N 31°22' E 121°28'0 0.0
2014-Jul-25 04:33N 31°22' E 121°28'052.1
2014-Jul-25 04:33N 31°22' E 121°28'0 0.0
2014-Jul-25 03:33N 31°22' E 121°28'063.1
2014-Jul-25 03:33N 31°22' E 121°28'0 0.2
2014-Jul-25 02:33N 31°22' E 121°28'0 0.0
2014-Jul-25 01:33N 31°22' E 121°28'0 6.4
2014-Jul-25 01:32N 31°22' E 121°28'0 0.2
2014-Jul-25 00:33N 31°22' E 121°28'0 0.0
2014-Jul-24 23:33N 31°22' E 121°28'0 0.0
2014-Jul-24 22:33N 31°22' E 121°28'0 0.0
2014-Jul-24 21:33N 31°22' E 121°28'0 0.0
2014-Jul-24 20:33N 31°22' E 121°28'0 0.0
2014-Jul-24 19:33N 31°22' E 121°28'0 0.0
2014-Jul-24 18:33N 31°22' E 121°28'0 0.0
2014-Jul-24 17:33N 31°22' E 121°28'0 0.0
2014-Jul-24 16:33N 31°22' E 121°28'0 0.0
2014-Jul-24 15:33N 31°22' E 121°28'0 0.0
2014-Jul-24 14:33N 31°22' E 121°28'0 0.0
2014-Jul-24 13:33N 31°22' E 121°28'0 0.0
2014-Jul-24 12:33N 31°22' E 121°28'0 0.0
2014-Jul-24 11:33N 31°22' E 121°28'0 0.0
2014-Jul-24 10:33N 31°22' E 121°28'0 0.0
2014-Jul-24 09:33N 31°22' E 121°28'0 0.0
2014-Jul-24 08:33N 31°22' E 121°28'0 0.0
2014-Jul-24 07:33N 31°22' E 121°28'0 0.0
2014-Jul-24 06:33N 31°22' E 121°28'0 0.0
2014-Jul-24 05:33N 31°22' E 121°28'0 0.0
2014-Jul-24 04:32N 31°22' E 121°28'92202.9
2014-Jul-24 04:05N 29°55' E 122°05'92174.5
2014-Jul-24 03:33N 31°22' E 121°28'88781.3
2014-Jul-24 03:27N 29°59' E 122°02'8898.8
2014-Jul-24 02:33N 31°22' E 121°28'67407.1
2014-Jul-24 02:24N 31°58' E 120°21'6780.2
2014-Jul-24 01:33N 31°22' E 121°28'67379.6
2014-Jul-24 01:23N 31°58' E 120°21'6781.5
2014-Jul-24 00:33N 31°22' E 121°28'894.3
2014-Jul-24 00:28N 31°14' E 121°30'8 9.1
2014-Jul-23 23:33N 31°22' E 121°28'6711489.9
2014-Jul-23 23:33N 31°58' E 120°21'74812.8
2014-Jul-23 23:28N 31°17' E 121°34'4 4.9
2014-Jul-23 22:33N 31°21' E 121°32'3597.1
2014-Jul-23 22:33N 31°22' E 121°28'672635.7
2014-Jul-23 22:32N 31°59' E 120°22'6768.8
2014-Jul-23 21:33N 31°22' E 121°28'4385.1
2014-Jul-23 21:32N 31°24' E 121°31'671116.4
2014-Jul-23 21:29N 32°02' E 120°26'6671.9
2014-Jul-23 20:33N 31°22' E 121°28'551778.4
2014-Jul-23 20:32N 31°59' E 120°40'5557.1
2014-Jul-23 19:33N 31°22' E 121°28'0 0.1
2014-Jul-23 18:33N 31°22' E 121°28'1336.3
2014-Jul-23 18:11N 31°22' E 121°43'1321.2
2014-Jul-23 17:33N 31°22' E 121°28'0 0.0
2014-Jul-23 16:33N 31°22' E 121°28'0 0.0
2014-Jul-23 15:33N 31°22' E 121°28'0 0.0
2014-Jul-23 14:32N 31°22' E 121°28'0 0.0
2014-Jul-23 13:33N 31°22' E 121°28'0 0.0
2014-Jul-23 12:33N 31°22' E 121°28'0 0.0
2014-Jul-23 11:33N 31°22' E 121°28'0 0.0
2014-Jul-23 10:33N 31°22' E 121°28'55135.6
2014-Jul-23 10:09N 31°60' E 120°40'5592.6
2014-Jul-23 09:33N 31°21' E 121°27'0 0.4
2014-Jul-23 08:33N 31°21' E 121°27'551023.2
2014-Jul-23 08:30N 32°00' E 120°41'5558.6
2014-Jul-23 07:33N 31°21' E 121°27'5347337.1
2014-Jul-23 07:33N 32°01' E 120°46'5346.5
2014-Jul-23 06:25N 31°21' E 121°27'0 0.0
2014-Jul-23 05:33N 31°21' E 121°27'0 0.0
2014-Jul-23 04:32N 31°21' E 121°27'0 0.0
2014-Jul-23 03:31N 31°21' E 121°27'5961.9
2014-Jul-23 02:33N 32°00' E 120°34'5910709.9
2014-Jul-23 02:33N 31°21' E 121°27'0 0.0
2014-Jul-23 01:33N 31°21' E 121°27'6457719.5
2014-Jul-23 01:33N 32°00' E 120°27'6463.1
2014-Jul-23 00:32N 31°21' E 121°27'0 0.0
2014-Jul-22 23:33N 31°21' E 121°27'0 0.0
2014-Jul-22 22:33N 31°21' E 121°27'776.2
2014-Jul-22 22:28N 31°28' E 121°28'7 7.9
2014-Jul-22 21:33N 31°21' E 121°27'6150.0
2014-Jul-22 21:31N 31°25' E 121°32'6 6.1
2014-Jul-22 20:33N 31°21' E 121°27'0 0.0
2014-Jul-22 19:33N 31°21' E 121°27'0 0.0
2014-Jul-22 18:33N 31°21' E 121°27'0 0.0
2014-Jul-22 17:32N 31°21' E 121°27'0 0.0
2014-Jul-22 16:32N 31°21' E 121°27'0 0.0
2014-Jul-22 15:33N 31°21' E 121°27'0 0.0
2014-Jul-22 14:33N 31°21' E 121°27'0 0.0
2014-Jul-22 13:33N 31°21' E 121°27'0 0.0
2014-Jul-22 12:33N 31°21' E 121°27'6 5.8
2014-Jul-22 11:33N 31°24' E 121°32'51644.1
2014-Jul-22 11:33N 31°21' E 121°27'6158.7
2014-Jul-22 10:31N 32°02' E 120°35'617372.5
2014-Jul-22 10:31N 31°24' E 121°31'5960.8
2014-Jul-22 09:33N 32°01' E 120°37'4452490.4
2014-Jul-22 09:22N 24°47' E 118°46'447246.7
2014-Jul-22 07:33N 32°01' E 120°45'4 3.7
2014-Jul-22 06:33N 32°00' E 120°49'11 3.5
2014-Jul-22 03:33N 31°60' E 120°37'8 8.1
2014-Jul-22 02:32N 32°02' E 120°27'66145.9
2014-Jul-22 02:05N 31°24' E 121°31'0 0.0
2014-Jul-22 01:28N 31°24' E 121°31'701678.8
2014-Jul-22 01:26N 31°57' E 120°17'7080.0
2014-Jul-22 00:33N 31°24' E 121°31'0 0.0
2014-Jul-21 23:22N 31°24' E 121°31'0 0.1
2014-Jul-21 22:33N 31°24' E 121°31'0 0.0
2014-Jul-21 21:33N 31°24' E 121°31'2 2.2
2014-Jul-21 20:32N 31°26' E 121°29'2 6.1
2014-Jul-21 20:13N 31°27' E 121°27'41 6.1
2014-Jul-21 13:29N 31°56' E 120°52'5 5.1
2014-Jul-21 12:33N 31°60' E 120°49'4938.8
2014-Jul-21 11:16N 31°26' E 121°31'565936.1
2014-Jul-21 11:15N 31°60' E 120°38'5 6.9
2014-Jul-21 10:33N 32°01' E 120°33'7 7.1
2014-Jul-21 09:33N 32°01' E 120°25'7 7.1
2014-Jul-21 08:33N 31°57' E 120°17'438439.4
2014-Jul-21 07:33N 24°47' E 118°46'43522393.6
2014-Jul-21 07:32N 31°56' E 120°09'1468.0
2014-Jul-21 07:20N 32°01' E 120°24'442467.9
2014-Jul-21 06:23N 24°47' E 118°46'0 0.0
2014-Jul-21 05:29N 24°47' E 118°46'0 0.0
2014-Jul-21 04:29N 24°47' E 118°46'0 0.0
2014-Jul-21 03:33N 24°47' E 118°46'414102.8
2014-Jul-20 23:31N 31°15' E 121°29'7 3.3
2014-Jul-20 21:31N 31°21' E 121°31'4 4.1
2014-Jul-20 20:33N 31°25' E 121°30'12 1.7
2014-Jul-20 13:31N 31°13' E 121°30'57456.0
2014-Jul-20 13:23N 31°58' E 120°50'4 5.3
2014-Jul-20 12:33N 32°00' E 120°46'59804.5
2014-Jul-20 12:29N 31°17' E 121°34'6550.8
2014-Jul-20 11:12N 31°60' E 120°36'4 6.2
2014-Jul-20 10:33N 32°01' E 120°32'6 6.2
2014-Jul-20 09:33N 32°01' E 120°24'7 7.2
2014-Jul-20 08:33N 31°57' E 120°17'8 8.1
2014-Jul-20 07:32N 31°56' E 120°08'7 7.5
2014-Jul-20 06:33N 31°59' E 119°60'96248.7
2014-Jul-20 06:10N 31°22' E 121°43'0 0.0
2014-Jul-19 22:06N 31°22' E 121°43'0 0.0
2014-Jul-19 21:18N 31°22' E 121°43'0 0.0
2014-Jul-19 20:29N 31°22' E 121°43'0 0.0
2014-Jul-19 19:25N 31°22' E 121°43'0 0.0
2014-Jul-19 17:11N 31°22' E 121°43'0 0.0
2014-Jul-19 15:18N 31°22' E 121°43'0 0.0
2014-Jul-19 12:29N 31°22' E 121°43'0 0.0
2014-Jul-19 10:06N 31°22' E 121°43'0 0.0
2014-Jul-19 09:28N 31°22' E 121°43'466499.7
2014-Jul-19 08:32N 24°15' E 118°10'2 1.8
2014-Jul-19 07:33N 24°14' E 118°09'46833.4
2014-Jul-18 17:32N 31°22' E 121°43'0 0.0
2014-Jul-18 16:33N 31°22' E 121°43'0 0.0
2014-Jul-18 15:31N 31°22' E 121°43'0 0.0
2014-Jul-18 14:32N 31°22' E 121°43'0 0.0
2014-Jul-18 13:32N 31°22' E 121°43'0 0.0
2014-Jul-18 12:32N 31°22' E 121°43'0 0.0
2014-Jul-18 11:32N 31°22' E 121°43'821633.5
2014-Jul-18 11:29N 31°57' E 120°16'8289.5
2014-Jul-18 10:33N 31°22' E 121°43'7823428.0
2014-Jul-18 10:33N 32°00' E 120°23'7 6.8
2014-Jul-18 09:33N 32°02' E 120°31'733936.0
2014-Jul-18 09:32N 31°22' E 121°43'0 0.0
2014-Jul-18 08:31N 31°22' E 121°43'0 0.0
2014-Jul-18 07:30N 31°22' E 121°43'0 0.0
2014-Jul-18 06:32N 31°22' E 121°43'0 0.0
2014-Jul-18 05:33N 31°22' E 121°43'0 0.0
2014-Jul-18 04:27N 31°22' E 121°43'0 0.0
2014-Jul-18 03:32N 31°22' E 121°43'1046.9
2014-Jul-18 03:20N 31°17' E 121°34'7293.5
2014-Jul-18 02:33N 32°01' E 120°27'761957.3
2014-Jul-18 02:31N 31°22' E 121°43'7375.4
2014-Jul-18 01:33N 32°02' E 120°32'732723.3
2014-Jul-18 01:32N 31°22' E 121°43'6766.0
2014-Jul-18 00:31N 32°00' E 120°39'6 6.5
2014-Jul-17 23:33N 32°01' E 120°47'6261.9
2014-Jul-17 22:33N 31°22' E 121°43'54376.8
2014-Jul-17 22:24N 31°55' E 120°53'54 4.2
2014-Jul-17 09:28N 31°22' E 121°43'13 4.4
2014-Jul-17 06:32N 31°15' E 121°30'6 2.7
2014-Jul-17 04:23N 31°21' E 121°32'2 2.2
2014-Jul-17 03:33N 31°22' E 121°30'12 1.1
2014-Jul-16 17:22N 31°22' E 121°43'0 0.0
2014-Jul-16 13:11N 31°22' E 121°43'0 0.0
2014-Jul-16 08:22N 31°22' E 121°43'0 0.0
2014-Jul-15 23:27N 31°22' E 121°43'0 0.0
2014-Jul-15 22:27N 31°22' E 121°43'0 0.0
2014-Jul-15 21:28N 31°22' E 121°43'0 0.0
2014-Jul-15 20:06N 31°22' E 121°43'0 0.0
2014-Jul-15 18:25N 31°22' E 121°43'  
Track history (hours):
 
Tides and Currents Weather Stations Pressure Air Temp Water Temp Dewpoint Dewpoint Depression Visibility Wind Speed Wind Dir Waves Ship Positions

Spaceon02064

Last reported at 2014-Jul-25 16:29 UTC. Time now 2014-Jul-25 18:21 UTC.
Position N 31°22' E 121°43'.

Length 6 m.

Type: Ship. MMSI: 200902064.

Date/timePositionNaut miles runAvg speedWind from/ knotsBaromVisibWave heightAir tempDewpointWater temp
2014-Jul-25 16:29N 31°22' E 121°43'13 2.5
2014-Jul-25 11:30N 31°26' E 121°30'2 2.3
2014-Jul-25 10:31N 31°24' E 121°31'227.4
2014-Jul-25 10:27N 31°25' E 121°29'1 1.4
2014-Jul-25 09:28N 31°25' E 121°30'0 3.4
2014-Jul-25 09:21N 31°24' E 121°31'2 2.2
2014-Jul-25 08:33N 31°23' E 121°30'212.5
2014-Jul-25 08:25N 31°24' E 121°31'4 4.3
2014-Jul-25 07:33N 31°22' E 121°28'421.7
2014-Jul-25 07:23N 31°24' E 121°31'4 4.5
2014-Jul-25 06:33N 31°22' E 121°28'4407.7
2014-Jul-25 06:33N 31°24' E 121°31'4 3.9
2014-Jul-25 05:33N 31°22' E 121°28'0 5.4
2014-Jul-25 05:32N 31°22' E 121°28'0 0.0
2014-Jul-25 04:33N 31°22' E 121°28'052.1
2014-Jul-25 04:33N 31°22' E 121°28'0 0.0
2014-Jul-25 03:33N 31°22' E 121°28'063.1
2014-Jul-25 03:33N 31°22' E 121°28'0 0.2
2014-Jul-25 02:33N 31°22' E 121°28'0 0.0
2014-Jul-25 01:33N 31°22' E 121°28'0 6.4
2014-Jul-25 01:32N 31°22' E 121°28'0 0.2
2014-Jul-25 00:33N 31°22' E 121°28'0 0.0
2014-Jul-24 23:33N 31°22' E 121°28'0 0.0
2014-Jul-24 22:33N 31°22' E 121°28'0 0.0
2014-Jul-24 21:33N 31°22' E 121°28'0 0.0
2014-Jul-24 20:33N 31°22' E 121°28'0 0.0
2014-Jul-24 19:33N 31°22' E 121°28'0 0.0
2014-Jul-24 18:33N 31°22' E 121°28'0 0.0
2014-Jul-24 17:33N 31°22' E 121°28'0 0.0
2014-Jul-24 16:33N 31°22' E 121°28'0 0.0
2014-Jul-24 15:33N 31°22' E 121°28'0 0.0
2014-Jul-24 14:33N 31°22' E 121°28'0 0.0
2014-Jul-24 13:33N 31°22' E 121°28'0 0.0
2014-Jul-24 12:33N 31°22' E 121°28'0 0.0
2014-Jul-24 11:33N 31°22' E 121°28'0 0.0
2014-Jul-24 10:33N 31°22' E 121°28'0 0.0
2014-Jul-24 09:33N 31°22' E 121°28'0 0.0
2014-Jul-24 08:33N 31°22' E 121°28'0 0.0
2014-Jul-24 07:33N 31°22' E 121°28'0 0.0
2014-Jul-24 06:33N 31°22' E 121°28'0 0.0
2014-Jul-24 05:33N 31°22' E 121°28'0 0.0
2014-Jul-24 04:32N 31°22' E 121°28'92202.9
2014-Jul-24 04:05N 29°55' E 122°05'92174.5
2014-Jul-24 03:33N 31°22' E 121°28'88781.3
2014-Jul-24 03:27N 29°59' E 122°02'8898.8
2014-Jul-24 02:33N 31°22' E 121°28'67407.1
2014-Jul-24 02:24N 31°58' E 120°21'6780.2
2014-Jul-24 01:33N 31°22' E 121°28'67379.6
2014-Jul-24 01:23N 31°58' E 120°21'6781.5
2014-Jul-24 00:33N 31°22' E 121°28'894.3
2014-Jul-24 00:28N 31°14' E 121°30'8 9.1
2014-Jul-23 23:33N 31°22' E 121°28'6711489.9
2014-Jul-23 23:33N 31°58' E 120°21'74812.8
2014-Jul-23 23:28N 31°17' E 121°34'4 4.9
2014-Jul-23 22:33N 31°21' E 121°32'3597.1
2014-Jul-23 22:33N 31°22' E 121°28'672635.7
2014-Jul-23 22:32N 31°59' E 120°22'6768.8
2014-Jul-23 21:33N 31°22' E 121°28'4385.1
2014-Jul-23 21:32N 31°24' E 121°31'671116.4
2014-Jul-23 21:29N 32°02' E 120°26'6671.9
2014-Jul-23 20:33N 31°22' E 121°28'551778.4
2014-Jul-23 20:32N 31°59' E 120°40'5557.1
2014-Jul-23 19:33N 31°22' E 121°28'0 0.1
2014-Jul-23 18:33N 31°22' E 121°28'1336.3
2014-Jul-23 18:11N 31°22' E 121°43'1321.2
2014-Jul-23 17:33N 31°22' E 121°28'0 0.0
2014-Jul-23 16:33N 31°22' E 121°28'0 0.0
2014-Jul-23 15:33N 31°22' E 121°28'0 0.0
2014-Jul-23 14:32N 31°22' E 121°28'0 0.0
2014-Jul-23 13:33N 31°22' E 121°28'0 0.0
2014-Jul-23 12:33N 31°22' E 121°28'0 0.0
2014-Jul-23 11:33N 31°22' E 121°28'0 0.0
2014-Jul-23 10:33N 31°22' E 121°28'55135.6
2014-Jul-23 10:09N 31°60' E 120°40'5592.6
2014-Jul-23 09:33N 31°21' E 121°27'0 0.4
2014-Jul-23 08:33N 31°21' E 121°27'551023.2
2014-Jul-23 08:30N 32°00' E 120°41'5558.6
2014-Jul-23 07:33N 31°21' E 121°27'5347337.1
2014-Jul-23 07:33N 32°01' E 120°46'5346.5
2014-Jul-23 06:25N 31°21' E 121°27'0 0.0
2014-Jul-23 05:33N 31°21' E 121°27'0 0.0
2014-Jul-23 04:32N 31°21' E 121°27'0 0.0
2014-Jul-23 03:31N 31°21' E 121°27'5961.9
2014-Jul-23 02:33N 32°00' E 120°34'5910709.9
2014-Jul-23 02:33N 31°21' E 121°27'0 0.0
2014-Jul-23 01:33N 31°21' E 121°27'6457719.5
2014-Jul-23 01:33N 32°00' E 120°27'6463.1
2014-Jul-23 00:32N 31°21' E 121°27'0 0.0
2014-Jul-22 23:33N 31°21' E 121°27'0 0.0
2014-Jul-22 22:33N 31°21' E 121°27'776.2
2014-Jul-22 22:28N 31°28' E 121°28'7 7.9
2014-Jul-22 21:33N 31°21' E 121°27'6150.0
2014-Jul-22 21:31N 31°25' E 121°32'6 6.1
2014-Jul-22 20:33N 31°21' E 121°27'0 0.0
2014-Jul-22 19:33N 31°21' E 121°27'0 0.0
2014-Jul-22 18:33N 31°21' E 121°27'0 0.0
2014-Jul-22 17:32N 31°21' E 121°27'0 0.0
2014-Jul-22 16:32N 31°21' E 121°27'0 0.0
2014-Jul-22 15:33N 31°21' E 121°27'0 0.0
2014-Jul-22 14:33N 31°21' E 121°27'0 0.0
2014-Jul-22 13:33N 31°21' E 121°27'0 0.0
2014-Jul-22 12:33N 31°21' E 121°27'6 5.8
2014-Jul-22 11:33N 31°24' E 121°32'51644.1
2014-Jul-22 11:33N 31°21' E 121°27'6158.7
2014-Jul-22 10:31N 32°02' E 120°35'617372.5
2014-Jul-22 10:31N 31°24' E 121°31'5960.8
2014-Jul-22 09:33N 32°01' E 120°37'4452490.4
2014-Jul-22 09:22N 24°47' E 118°46'447246.7
2014-Jul-22 07:33N 32°01' E 120°45'4 3.7
2014-Jul-22 06:33N 32°00' E 120°49'11 3.5
2014-Jul-22 03:33N 31°60' E 120°37'8 8.1
2014-Jul-22 02:32N 32°02' E 120°27'66145.9
2014-Jul-22 02:05N 31°24' E 121°31'0 0.0
2014-Jul-22 01:28N 31°24' E 121°31'701678.8
2014-Jul-22 01:26N 31°57' E 120°17'7080.0
2014-Jul-22 00:33N 31°24' E 121°31'0 0.0
2014-Jul-21 23:22N 31°24' E 121°31'0 0.1
2014-Jul-21 22:33N 31°24' E 121°31'0 0.0
2014-Jul-21 21:33N 31°24' E 121°31'2 2.2
2014-Jul-21 20:32N 31°26' E 121°29'2 6.1
2014-Jul-21 20:13N 31°27' E 121°27'41 6.1
2014-Jul-21 13:29N 31°56' E 120°52'5 5.1
2014-Jul-21 12:33N 31°60' E 120°49'4938.8
2014-Jul-21 11:16N 31°26' E 121°31'565936.1
2014-Jul-21 11:15N 31°60' E 120°38'5 6.9
2014-Jul-21 10:33N 32°01' E 120°33'7 7.1
2014-Jul-21 09:33N 32°01' E 120°25'7 7.1
2014-Jul-21 08:33N 31°57' E 120°17'438439.4
2014-Jul-21 07:33N 24°47' E 118°46'43522393.6
2014-Jul-21 07:32N 31°56' E 120°09'1468.0
2014-Jul-21 07:20N 32°01' E 120°24'442467.9
2014-Jul-21 06:23N 24°47' E 118°46'0 0.0
2014-Jul-21 05:29N 24°47' E 118°46'0 0.0
2014-Jul-21 04:29N 24°47' E 118°46'0 0.0
2014-Jul-21 03:33N 24°47' E 118°46'414102.8
2014-Jul-20 23:31N 31°15' E 121°29'7 3.3
2014-Jul-20 21:31N 31°21' E 121°31'4 4.1
2014-Jul-20 20:33N 31°25' E 121°30'12 1.7
2014-Jul-20 13:31N 31°13' E 121°30'57456.0
2014-Jul-20 13:23N 31°58' E 120°50'4 5.3
2014-Jul-20 12:33N 32°00' E 120°46'59804.5
2014-Jul-20 12:29N 31°17' E 121°34'6550.8
2014-Jul-20 11:12N 31°60' E 120°36'4 6.2
2014-Jul-20 10:33N 32°01' E 120°32'6 6.2
2014-Jul-20 09:33N 32°01' E 120°24'7 7.2
2014-Jul-20 08:33N 31°57' E 120°17'8 8.1
2014-Jul-20 07:32N 31°56' E 120°08'7 7.5
2014-Jul-20 06:33N 31°59' E 119°60'96248.7
2014-Jul-20 06:10N 31°22' E 121°43'0 0.0
2014-Jul-19 22:06N 31°22' E 121°43'0 0.0
2014-Jul-19 21:18N 31°22' E 121°43'0 0.0
2014-Jul-19 20:29N 31°22' E 121°43'0 0.0
2014-Jul-19 19:25N 31°22' E 121°43'0 0.0
2014-Jul-19 17:11N 31°22' E 121°43'0 0.0
2014-Jul-19 15:18N 31°22' E 121°43'0 0.0
2014-Jul-19 12:29N 31°22' E 121°43'0 0.0
2014-Jul-19 10:06N 31°22' E 121°43'0 0.0
2014-Jul-19 09:28N 31°22' E 121°43'466499.7
2014-Jul-19 08:32N 24°15' E 118°10'2 1.8
2014-Jul-19 07:33N 24°14' E 118°09'46833.4
2014-Jul-18 17:32N 31°22' E 121°43'0 0.0
2014-Jul-18 16:33N 31°22' E 121°43'0 0.0
2014-Jul-18 15:31N 31°22' E 121°43'0 0.0
2014-Jul-18 14:32N 31°22' E 121°43'0 0.0
2014-Jul-18 13:32N 31°22' E 121°43'0 0.0
2014-Jul-18 12:32N 31°22' E 121°43'0 0.0
2014-Jul-18 11:32N 31°22' E 121°43'821633.5
2014-Jul-18 11:29N 31°57' E 120°16'8289.5
2014-Jul-18 10:33N 31°22' E 121°43'7823428.0
2014-Jul-18 10:33N 32°00' E 120°23'7 6.8
2014-Jul-18 09:33N 32°02' E 120°31'733936.0
2014-Jul-18 09:32N 31°22' E 121°43'0 0.0
2014-Jul-18 08:31N 31°22' E 121°43'0 0.0
2014-Jul-18 07:30N 31°22' E 121°43'0 0.0
2014-Jul-18 06:32N 31°22' E 121°43'0 0.0
2014-Jul-18 05:33N 31°22' E 121°43'0 0.0
2014-Jul-18 04:27N 31°22' E 121°43'0 0.0
2014-Jul-18 03:32N 31°22' E 121°43'1046.9
2014-Jul-18 03:20N 31°17' E 121°34'7293.5
2014-Jul-18 02:33N 32°01' E 120°27'761957.3
2014-Jul-18 02:31N 31°22' E 121°43'7375.4
2014-Jul-18 01:33N 32°02' E 120°32'732723.3
2014-Jul-18 01:32N 31°22' E 121°43'6766.0
2014-Jul-18 00:31N 32°00' E 120°39'6 6.5
2014-Jul-17 23:33N 32°01' E 120°47'6261.9
2014-Jul-17 22:33N 31°22' E 121°43'54376.8
2014-Jul-17 22:24N 31°55' E 120°53'54 4.2
2014-Jul-17 09:28N 31°22' E 121°43'13 4.4
2014-Jul-17 06:32N 31°15' E 121°30'6 2.7
2014-Jul-17 04:23N 31°21' E 121°32'2 2.2
2014-Jul-17 03:33N 31°22' E 121°30'12 1.1
2014-Jul-16 17:22N 31°22' E 121°43'0 0.0
2014-Jul-16 13:11N 31°22' E 121°43'0 0.0
2014-Jul-16 08:22N 31°22' E 121°43'0 0.0
2014-Jul-15 23:27N 31°22' E 121°43'0 0.0
2014-Jul-15 22:27N 31°22' E 121°43'0 0.0
2014-Jul-15 21:28N 31°22' E 121°43'0 0.0
2014-Jul-15 20:06N 31°22' E 121°43'0 0.0
2014-Jul-15 18:25N 31°22' E 121°43'  

Dump ship's entire track history